Time;durP1;ratioP1;P1;durP2;ratioP2;P2;SDS_P1;SDS_P2;PMS_P1;PMS_P2;Temp;Humidity;BMP_temperature;BMP_pressure;BME280_temperature;BME280_humidity;BME280_pressure;Samples;Min_cycle;Max_cycle;Signal;HPM_P1;HPM_P2
2021/04/08 00:02:45;;;;;;;5.50;4.47;;;5.80;82.40;;;;;;10555844;28;20196;-80
2021/04/08 00:07:47;;;;;;;7.70;4.67;;;5.60;83.90;;;;;;10524393;28;20211;-79
2021/04/08 00:12:52;;;;;;;5.33;4.63;;;5.40;85.80;;;;;;10539903;28;20223;-80
2021/04/08 00:17:53;;;;;;;10.00;4.90;;;5.30;87.40;;;;;;10543030;28;20212;-80
2021/04/08 00:22:55;;;;;;;6.10;5.50;;;5.30;88.30;;;;;;10557503;28;20193;-80
2021/04/08 00:27:57;;;;;;;5.20;4.80;;;5.10;88.50;;;;;;10553458;28;20223;-81
2021/04/08 00:32:59;;;;;;;4.60;4.20;;;5.00;90.00;;;;;;10551302;28;20204;-79
2021/04/08 00:38:01;;;;;;;5.07;4.60;;;4.90;90.10;;;;;;10510876;28;20272;-80
2021/04/08 00:43:04;;;;;;;5.60;5.10;;;4.80;90.80;;;;;;10528184;28;20596;-80
2021/04/08 00:48:06;;;;;;;5.47;5.00;;;4.70;90.90;;;;;;10544360;28;20905;-79
2021/04/08 00:53:12;;;;;;;5.50;5.00;;;4.60;90.80;;;;;;10534567;28;20209;-80
2021/04/08 00:58:16;;;;;;;5.70;5.07;;;4.50;90.10;;;;;;10519598;28;20211;-79
2021/04/08 01:03:20;;;;;;;6.13;5.20;;;4.50;91.20;;;;;;10529661;28;20192;-79
2021/04/08 01:08:22;;;;;;;6.23;5.17;;;4.60;91.50;;;;;;10518529;28;20310;-79
2021/04/08 01:13:25;;;;;;;6.10;5.27;;;4.60;91.10;;;;;;10539355;28;20215;-79
2021/04/08 01:18:37;;;;;;;6.97;5.40;;;4.70;90.60;;;;;;10532946;28;20223;-80
2021/04/08 01:24:10;;;;;;;5.80;5.10;;;4.80;90.30;;;;;;10551723;28;20254;-80
2021/04/08 01:29:24;;;;;;;5.90;5.30;;;4.80;90.00;;;;;;10541332;28;20248;-79
2021/04/08 01:34:30;;;;;;;6.43;5.83;;;4.90;89.50;;;;;;10541060;28;20212;-80
2021/04/08 01:39:32;;;;;;;6.77;6.27;;;4.90;89.40;;;;;;10547730;28;20232;-80
2021/04/08 01:44:36;;;;;;;6.10;5.50;;;4.90;89.60;;;;;;10544189;28;20196;-79
2021/04/08 01:49:43;;;;;;;6.43;5.83;;;5.00;90.00;;;;;;10538608;28;20726;-80
2021/04/08 01:54:49;;;;;;;6.60;5.90;;;5.10;89.70;;;;;;10520050;28;20699;-79
2021/04/08 01:59:52;;;;;;;6.70;6.10;;;5.10;88.90;;;;;;10527628;28;20196;-80
2021/04/08 02:04:56;;;;;;;7.83;4.93;;;5.30;89.40;;;;;;10527640;28;20220;-80
2021/04/08 02:10:00;;;;;;;6.40;5.30;;;5.30;88.70;;;;;;10543830;28;20254;-80
2021/04/08 02:15:05;;;;;;;5.60;5.10;;;5.40;89.00;;;;;;10563335;28;20277;-80
2021/04/08 02:20:12;;;;;;;8.43;4.80;;;5.40;88.40;;;;;;10563983;28;20203;-80
2021/04/08 02:25:16;;;;;;;8.07;4.50;;;5.40;86.60;;;;;;10544131;28;20211;-80
2021/04/08 02:30:20;;;;;;;6.37;4.90;;;5.40;86.20;;;;;;10545456;28;20193;-79
2021/04/08 02:35:23;;;;;;;4.17;3.87;;;5.40;85.50;;;;;;10525221;28;20308;-80
2021/04/08 02:40:24;;;;;;;5.27;4.50;;;5.40;85.00;;;;;;10557717;28;20286;-80
2021/04/08 02:45:26;;;;;;;4.60;4.20;;;5.40;85.90;;;;;;10563010;28;20246;-81
2021/04/08 02:50:28;;;;;;;4.47;4.13;;;5.40;85.90;;;;;;10528677;28;20215;-81
2021/04/08 02:55:42;;;;;;;6.03;4.13;;;5.40;86.20;;;;;;10515035;28;20637;-81
2021/04/08 03:00:57;;;;;;;4.80;3.87;;;5.50;86.00;;;;;;10495841;28;20559;-81
2021/04/08 03:06:03;;;;;;;4.20;3.90;;;5.50;85.30;;;;;;10495345;28;20587;-81
2021/04/08 03:11:08;;;;;;;4.20;3.90;;;5.50;84.60;;;;;;10515591;28;20184;-81
2021/04/08 03:16:16;;;;;;;5.07;3.63;;;5.60;84.40;;;;;;10519127;28;20223;-81
2021/04/08 03:21:23;;;;;;;3.80;3.50;;;5.60;84.90;;;;;;10555244;28;20199;-81
2021/04/08 03:26:25;;;;;;;4.23;3.83;;;5.60;83.00;;;;;;10554956;28;20228;-81
2021/04/08 03:31:28;;;;;;;3.43;3.00;;;5.60;82.70;;;;;;10556696;28;20214;-80
2021/04/08 03:36:31;;;;;;;3.30;3.07;;;5.60;82.80;;;;;;10552689;28;20233;-80
2021/04/08 03:41:38;;;;;;;5.17;4.23;;;5.60;82.60;;;;;;10553839;28;20223;-81
2021/04/08 03:46:42;;;;;;;6.83;4.00;;;5.70;84.20;;;;;;10552635;28;20212;-80
2021/04/08 03:51:46;;;;;;;4.43;3.60;;;5.70;84.10;;;;;;10562570;28;20278;-80
2021/04/08 03:56:50;;;;;;;3.20;3.00;;;5.70;82.90;;;;;;10556930;28;20226;-81
2021/04/08 04:01:52;;;;;;;4.60;4.20;;;5.70;82.70;;;;;;10552480;28;20196;-80
2021/04/08 04:06:57;;;;;;;4.07;3.77;;;5.70;83.70;;;;;;10568773;28;20212;-80
2021/04/08 04:11:58;;;;;;;4.30;3.93;;;5.70;83.30;;;;;;10536129;28;20215;-80
2021/04/08 04:17:23;;;;;;;7.07;3.70;;;5.70;83.80;;;;;;10549471;28;20220;-80
2021/04/08 04:22:26;;;;;;;4.47;3.77;;;5.60;83.90;;;;;;10519536;28;20241;-80
2021/04/08 04:27:27;;;;;;;3.80;3.50;;;5.60;82.60;;;;;;10533148;28;20212;-81
2021/04/08 04:32:29;;;;;;;3.83;3.43;;;5.60;84.00;;;;;;10552472;28;20188;-80
2021/04/08 04:37:31;;;;;;;5.23;4.20;;;5.60;83.80;;;;;;10543571;28;20215;-81
2021/04/08 04:42:34;;;;;;;4.20;3.80;;;5.50;83.00;;;;;;10523416;28;20624;-80
2021/04/08 04:47:38;;;;;;;4.30;3.57;;;5.50;82.80;;;;;;10539356;28;20307;-80
2021/04/08 04:52:41;;;;;;;3.40;3.10;;;5.40;82.50;;;;;;10544617;28;20200;-82
2021/04/08 04:57:43;;;;;;;4.80;3.63;;;5.40;83.20;;;;;;10544598;28;20571;-81
2021/04/08 05:02:45;;;;;;;4.70;2.90;;;5.40;82.30;;;;;;10537978;28;20209;-80
2021/04/08 05:07:47;;;;;;;4.63;3.67;;;5.40;82.30;;;;;;10544202;28;20586;-80
2021/04/08 05:12:49;;;;;;;4.27;3.87;;;5.40;81.50;;;;;;10542268;28;20267;-79
2021/04/08 05:17:50;;;;;;;3.90;3.60;;;5.40;82.30;;;;;;10538743;28;20290;-79
2021/04/08 05:22:55;;;;;;;4.50;4.10;;;5.50;81.90;;;;;;10534892;28;20321;-79
2021/04/08 05:27:57;;;;;;;5.03;3.87;;;5.50;82.30;;;;;;10543940;28;20638;-79
2021/04/08 05:32:58;;;;;;;6.63;4.97;;;5.50;82.30;;;;;;10552100;28;20208;-80
2021/04/08 05:38:01;;;;;;;5.37;4.63;;;5.60;81.40;;;;;;10556474;28;20690;-82
2021/04/08 05:43:02;;;;;;;4.27;3.87;;;5.70;80.20;;;;;;10550881;28;20189;-81
2021/04/08 05:48:05;;;;;;;5.20;4.70;;;5.70;79.50;;;;;;10534749;28;20227;-82
2021/04/08 05:53:08;;;;;;;4.30;3.90;;;5.80;79.60;;;;;;10556000;28;20210;-82
2021/04/08 05:58:09;;;;;;;3.90;3.60;;;5.80;78.10;;;;;;10557824;28;20212;-82
2021/04/08 06:03:11;;;;;;;4.43;4.10;;;5.90;78.20;;;;;;10542453;28;20614;-82
2021/04/08 06:08:14;;;;;;;4.10;3.63;;;6.00;78.50;;;;;;10561972;28;20212;-82
2021/04/08 06:13:15;;;;;;;4.83;4.33;;;6.10;78.60;;;;;;10563646;28;20762;-82
2021/04/08 06:18:17;;;;;;;8.50;3.80;;;6.20;76.90;;;;;;10562799;28;20208;-82
2021/04/08 06:23:20;;;;;;;3.60;3.30;;;6.30;76.50;;;;;;10568211;28;20662;-82
2021/04/08 06:28:21;;;;;;;5.63;3.80;;;6.40;75.90;;;;;;10554087;28;20220;-82
2021/04/08 06:33:23;;;;;;;3.77;3.47;;;6.50;73.90;;;;;;10558589;28;20680;-82
2021/04/08 06:38:25;;;;;;;6.47;3.80;;;6.70;73.40;;;;;;10555083;28;20576;-81
2021/04/08 06:43:31;;;;;;;4.77;4.27;;;6.70;73.30;;;;;;10557837;28;20184;-82
2021/04/08 06:48:40;;;;;;;4.50;4.10;;;6.80;74.00;;;;;;10559236;28;20234;-82
2021/04/08 06:53:43;;;;;;;5.27;4.77;;;6.80;73.20;;;;;;10543277;28;20212;-82
2021/04/08 06:58:45;;;;;;;4.90;4.50;;;6.80;73.50;;;;;;10546775;28;20215;-82
2021/04/08 07:03:47;;;;;;;6.07;5.57;;;6.90;73.00;;;;;;10555849;28;20207;-82
2021/04/08 07:08:49;;;;;;;6.50;5.87;;;7.00;71.00;;;;;;10559298;28;20222;-82
2021/04/08 07:13:51;;;;;;;6.13;5.53;;;7.10;69.30;;;;;;10561054;28;20207;-82
2021/04/08 07:18:54;;;;;;;6.63;6.10;;;7.20;68.90;;;;;;10561446;28;20631;-82
2021/04/08 07:24:14;;;;;;;9.53;6.77;;;7.20;66.90;;;;;;10560579;28;20196;-82
2021/04/08 07:29:16;;;;;;;6.10;5.60;;;7.30;66.00;;;;;;10563515;28;20209;-83
2021/04/08 07:34:37;;;;;;;6.87;6.30;;;7.30;65.30;;;;;;10582374;28;20223;-82
2021/04/08 07:39:42;;;;;;;6.63;6.10;;;7.20;67.00;;;;;;10537401;28;20199;-82
2021/04/08 07:44:47;;;;;;;7.80;6.43;;;7.40;64.40;;;;;;10551477;28;20552;-83
2021/04/08 07:49:49;;;;;;;6.43;5.90;;;7.60;62.50;;;;;;10535388;28;20200;-82
2021/04/08 07:55:08;;;;;;;7.47;6.60;;;7.80;64.90;;;;;;10556746;28;20227;-82
2021/04/08 08:00:18;;;;;;;8.70;7.00;;;7.90;65.20;;;;;;10528224;28;20200;-82
2021/04/08 08:05:27;;;;;;;9.57;7.07;;;7.90;64.30;;;;;;10548291;28;20243;-81
2021/04/08 08:10:29;;;;;;;6.80;6.20;;;8.00;63.30;;;;;;10517654;28;20201;-82
2021/04/08 08:15:31;;;;;;;6.90;6.30;;;8.20;65.00;;;;;;10511928;28;20223;-82
2021/04/08 08:20:33;;;;;;;7.73;6.30;;;8.50;60.70;;;;;;10539205;28;20229;-82
2021/04/08 08:25:36;;;;;;;6.80;6.20;;;8.70;61.60;;;;;;10550052;28;20226;-82
2021/04/08 08:30:52;;;;;;;5.80;5.30;;;8.80;60.80;;;;;;10540481;28;20211;-82
2021/04/08 08:35:54;;;;;;;6.63;5.30;;;8.90;58.30;;;;;;10535066;28;20208;-82
2021/04/08 08:40:57;;;;;;;5.07;4.77;;;9.00;58.00;;;;;;10522693;28;20196;-82
2021/04/08 08:46:00;;;;;;;5.13;4.70;;;9.00;58.80;;;;;;10533322;22;20238;-79
2021/04/08 08:51:02;;;;;;;5.30;4.80;;;9.00;58.60;;;;;;10513604;28;20245;-78
2021/04/08 08:56:05;;;;;;;4.93;4.47;;;9.00;55.80;;;;;;10523169;28;20211;-78
2021/04/08 09:01:07;;;;;;;4.97;4.47;;;9.40;57.50;;;;;;10528747;28;20606;-78
2021/04/08 09:06:09;;;;;;;5.17;4.67;;;9.60;56.10;;;;;;10502769;28;20236;-78
2021/04/08 09:11:22;;;;;;;5.70;4.50;;;9.60;54.80;;;;;;10520281;28;20603;-78
2021/04/08 09:16:23;;;;;;;5.73;5.10;;;9.60;55.00;;;;;;10497136;28;20223;-79
2021/04/08 09:21:25;;;;;;;4.77;4.37;;;9.70;53.90;;;;;;10517671;28;20193;-79
2021/04/08 09:26:28;;;;;;;4.90;4.50;;;9.90;52.00;;;;;;10517099;28;20242;-79
2021/04/08 09:31:31;;;;;;;4.10;3.77;;;9.90;53.30;;;;;;10512683;28;20232;-79
2021/04/08 09:36:44;;;;;;;4.80;4.40;;;9.70;53.70;;;;;;10512437;28;20220;-78
2021/04/08 09:41:49;;;;;;;5.47;4.60;;;9.80;54.70;;;;;;10496782;28;20660;-78
2021/04/08 09:46:53;;;;;;;4.60;4.20;;;9.90;53.00;;;;;;10499504;28;20216;-79
2021/04/08 09:52:00;;;;;;;4.40;4.07;;;9.90;52.40;;;;;;10531165;28;20202;-79
2021/04/08 09:57:06;;;;;;;4.67;3.80;;;9.90;51.30;;;;;;10567634;28;20219;-79
2021/04/08 10:02:08;;;;;;;4.50;3.80;;;9.90;51.90;;;;;;10584240;28;20202;-79
2021/04/08 10:07:09;;;;;;;4.00;3.70;;;10.00;51.30;;;;;;10565070;28;20227;-79
2021/04/08 10:12:14;;;;;;;4.80;3.93;;;10.20;51.50;;;;;;10591557;28;20465;-79
2021/04/08 10:17:15;;;;;;;6.83;5.07;;;10.50;51.10;;;;;;10526737;28;20793;-78
2021/04/08 10:22:17;;;;;;;5.30;4.80;;;10.70;51.70;;;;;;10571345;28;20225;-78
2021/04/08 10:27:23;;;;;;;4.93;4.53;;;10.80;51.10;;;;;;10545752;28;20726;-78
2021/04/08 10:32:32;;;;;;;6.50;4.77;;;10.70;50.90;;;;;;10530634;28;20199;-79
2021/04/08 10:37:34;;;;;;;4.70;4.30;;;10.40;50.90;;;;;;10527946;28;20357;-79
2021/04/08 10:42:36;;;;;;;6.30;5.40;;;10.20;51.10;;;;;;10527571;28;20196;-79
2021/04/08 10:47:38;;;;;;;4.83;4.43;;;10.20;50.90;;;;;;10548024;28;20219;-79
2021/04/08 10:52:40;;;;;;;5.97;5.23;;;10.30;50.20;;;;;;10545598;28;20274;-79
2021/04/08 10:57:43;;;;;;;5.13;4.63;;;10.20;50.90;;;;;;10545897;28;20318;-79
2021/04/08 11:02:46;;;;;;;5.60;5.10;;;9.90;50.70;;;;;;10546275;28;20801;-78
2021/04/08 11:07:49;;;;;;;5.20;4.70;;;9.70;51.60;;;;;;10510418;28;20218;-79
2021/04/08 11:12:52;;;;;;;7.30;5.20;;;9.80;51.60;;;;;;10528974;28;20216;-79
2021/04/08 11:17:57;;;;;;;6.40;5.80;;;9.90;51.90;;;;;;10513374;28;20219;-79
2021/04/08 11:23:00;;;;;;;9.73;5.43;;;10.10;51.20;;;;;;10501153;28;20257;-78
2021/04/08 11:28:04;;;;;;;6.27;5.67;;;10.30;51.00;;;;;;10541784;28;20754;-79
2021/04/08 11:33:07;;;;;;;6.90;5.43;;;10.40;50.20;;;;;;10523920;28;22056;-79
2021/04/08 11:38:14;;;;;;;5.30;4.43;;;10.60;50.90;;;;;;10502247;28;20212;-79
2021/04/08 11:43:25;;;;;;;5.03;3.87;;;10.80;49.50;;;;;;10524179;28;20180;-79
2021/04/08 11:48:40;;;;;;;4.57;4.17;;;10.90;48.50;;;;;;10520452;28;20632;-79
2021/04/08 11:53:43;;;;;;;4.70;4.30;;;11.00;48.30;;;;;;10523235;28;20204;-79
2021/04/08 11:58:45;;;;;;;6.00;5.50;;;11.00;47.60;;;;;;10507595;28;20216;-79
2021/04/08 12:03:50;;;;;;;4.53;4.13;;;11.10;48.10;;;;;;10526902;28;20547;-79
2021/04/08 12:08:54;;;;;;;4.70;4.20;;;11.00;47.50;;;;;;10518487;28;20306;-79
2021/04/08 12:14:05;;;;;;;3.87;3.40;;;10.80;47.20;;;;;;10503037;28;20274;-79
2021/04/08 12:19:07;;;;;;;3.70;3.40;;;10.70;47.10;;;;;;10525393;28;20748;-79
2021/04/08 12:24:09;;;;;;;4.57;4.20;;;10.70;47.60;;;;;;10520484;28;20195;-79
2021/04/08 12:29:12;;;;;;;3.07;2.77;;;10.70;46.70;;;;;;10511858;28;20703;-79
2021/04/08 12:34:14;;;;;;;4.30;3.60;;;10.80;47.00;;;;;;10515578;28;20690;-78
2021/04/08 12:39:16;;;;;;;4.00;3.60;;;10.80;47.30;;;;;;10518075;28;20219;-79
2021/04/08 12:44:19;;;;;;;3.80;3.50;;;10.90;47.10;;;;;;10485182;28;20663;-79
2021/04/08 12:49:21;;;;;;;4.63;3.60;;;10.90;47.60;;;;;;10508905;28;20244;-79
2021/04/08 12:54:22;;;;;;;4.50;3.87;;;10.90;46.70;;;;;;10512418;28;20197;-78
2021/04/08 12:59:25;;;;;;;3.90;3.60;;;10.90;47.60;;;;;;10526152;28;20228;-79
2021/04/08 13:04:27;;;;;;;6.90;4.03;;;10.80;47.60;;;;;;10505749;28;20191;-79
2021/04/08 13:09:28;;;;;;;6.20;3.80;;;10.80;48.00;;;;;;10506928;28;20242;-79
2021/04/08 13:14:31;;;;;;;5.00;3.37;;;10.80;46.10;;;;;;10513327;28;20216;-79
2021/04/08 13:19:33;;;;;;;4.50;3.90;;;10.90;44.40;;;;;;10501380;28;20299;-79
2021/04/08 13:24:34;;;;;;;3.87;3.30;;;11.00;46.90;;;;;;10522910;28;20196;-78
2021/04/08 13:29:38;;;;;;;4.93;3.30;;;11.10;46.70;;;;;;10524742;28;20231;-79
2021/04/08 13:34:39;;;;;;;3.40;2.70;;;11.20;46.20;;;;;;10503554;28;20208;-79
2021/04/08 13:39:41;;;;;;;2.97;2.77;;;11.30;46.30;;;;;;10500574;28;20274;-78
2021/04/08 13:44:44;;;;;;;4.00;2.90;;;11.40;46.40;;;;;;10524875;28;20195;-79
2021/04/08 13:49:45;;;;;;;4.17;2.83;;;11.50;46.20;;;;;;10509207;28;20226;-79
2021/04/08 13:54:48;;;;;;;4.20;3.80;;;11.40;45.60;;;;;;10494813;28;20381;-79
2021/04/08 13:59:50;;;;;;;3.73;3.23;;;11.40;46.60;;;;;;10495194;28;20208;-79
2021/04/08 14:04:52;;;;;;;3.77;3.40;;;11.30;46.80;;;;;;10530901;28;20181;-78
2021/04/08 14:09:54;;;;;;;3.87;3.47;;;11.20;46.70;;;;;;10529139;28;20298;-78
2021/04/08 14:14:56;;;;;;;4.13;3.13;;;10.90;45.20;;;;;;10526105;28;20262;-78
2021/04/08 14:19:58;;;;;;;3.70;3.40;;;10.50;45.90;;;;;;10520198;28;20208;-78
2021/04/08 14:25:00;;;;;;;3.43;3.23;;;10.30;47.00;;;;;;10503998;28;20187;-78
2021/04/08 14:30:04;;;;;;;3.70;3.30;;;10.10;48.90;;;;;;10524814;28;20299;-78
2021/04/08 14:35:07;;;;;;;4.57;4.17;;;10.10;48.90;;;;;;10508539;28;20212;-78
2021/04/08 14:40:09;;;;;;;4.40;4.00;;;10.10;48.20;;;;;;10510628;28;20235;-79
2021/04/08 14:45:13;;;;;;;4.00;3.70;;;10.20;47.90;;;;;;10492530;28;20212;-79
2021/04/08 14:50:15;;;;;;;4.87;3.77;;;10.30;48.50;;;;;;10510222;28;20195;-80
2021/04/08 14:55:17;;;;;;;3.90;3.60;;;10.50;47.90;;;;;;10526027;28;20223;-79
2021/04/08 15:00:21;;;;;;;5.37;4.03;;;10.40;48.00;;;;;;10483409;28;20192;-79
2021/04/08 15:05:23;;;;;;;3.87;3.57;;;10.30;46.60;;;;;;10481348;28;20184;-79
2021/04/08 15:10:25;;;;;;;5.73;4.57;;;10.20;49.50;;;;;;10528322;28;20572;-79
2021/04/08 15:15:27;;;;;;;4.50;3.70;;;10.30;47.50;;;;;;10539900;28;20216;-79
2021/04/08 15:20:29;;;;;;;4.50;4.10;;;10.30;47.60;;;;;;10533603;28;20655;-80
2021/04/08 15:25:31;;;;;;;7.30;4.50;;;10.30;47.50;;;;;;10524884;28;20227;-79
2021/04/08 15:30:33;;;;;;;4.93;3.80;;;10.20;49.10;;;;;;10528967;28;20188;-80
2021/04/08 15:35:35;;;;;;;4.30;3.90;;;10.20;47.80;;;;;;10544560;28;20223;-80
2021/04/08 15:40:36;;;;;;;3.87;3.57;;;10.10;49.40;;;;;;10526312;28;20218;-79
2021/04/08 15:45:39;;;;;;;3.90;3.57;;;10.00;46.70;;;;;;10539943;28;20218;-80
2021/04/08 15:50:41;;;;;;;4.30;3.90;;;10.00;48.90;;;;;;10542905;28;20188;-80
2021/04/08 15:55:48;;;;;;;4.57;4.17;;;10.00;47.50;;;;;;10544366;28;20219;-79
2021/04/08 16:00:53;;;;;;;4.70;4.30;;;9.90;49.30;;;;;;10510431;28;20192;-80
2021/04/08 16:05:55;;;;;;;4.23;3.90;;;9.90;49.00;;;;;;10542633;28;20230;-80
2021/04/08 16:10:57;;;;;;;5.30;4.80;;;9.90;49.80;;;;;;10514733;28;20279;-79
2021/04/08 16:16:00;;;;;;;4.50;4.10;;;9.90;49.30;;;;;;10533608;28;20220;-79
2021/04/08 16:21:01;;;;;;;4.17;3.87;;;9.80;49.10;;;;;;10512216;28;20188;-79
2021/04/08 16:26:03;;;;;;;5.70;3.80;;;9.80;49.70;;;;;;10516769;28;20822;-79
2021/04/08 16:31:06;;;;;;;4.57;4.17;;;9.80;49.90;;;;;;10514962;28;20195;-79
2021/04/08 16:36:08;;;;;;;4.30;3.90;;;9.80;49.90;;;;;;10536994;28;20272;-79
2021/04/08 16:41:10;;;;;;;4.63;4.00;;;9.80;49.50;;;;;;10515548;28;20195;-79
2021/04/08 16:46:13;;;;;;;6.30;4.07;;;9.80;50.00;;;;;;10553882;28;20313;-79
2021/04/08 16:51:14;;;;;;;5.27;4.80;;;9.80;49.10;;;;;;10530574;28;20275;-79
2021/04/08 16:56:17;;;;;;;5.03;4.53;;;9.80;50.10;;;;;;10524832;28;20220;-79
2021/04/08 17:01:19;;;;;;;7.50;4.67;;;9.80;50.60;;;;;;10527172;28;20184;-79
2021/04/08 17:06:21;;;;;;;5.37;3.87;;;9.80;51.50;;;;;;10539262;28;20220;-79
2021/04/08 17:11:23;;;;;;;5.90;4.17;;;9.70;52.90;;;;;;10522277;28;20225;-79
2021/04/08 17:16:25;;;;;;;5.33;4.70;;;9.70;52.60;;;;;;10521276;28;20894;-79
2021/04/08 17:21:27;;;;;;;5.90;4.30;;;9.70;53.40;;;;;;10544601;28;20648;-79
2021/04/08 17:26:31;;;;;;;4.87;4.07;;;9.70;53.10;;;;;;10520767;28;20222;-79
2021/04/08 17:31:34;;;;;;;5.93;4.00;;;9.60;51.90;;;;;;10537910;28;20215;-79
2021/04/08 17:36:35;;;;;;;4.83;4.40;;;9.60;52.20;;;;;;10543820;28;20235;-79
2021/04/08 17:41:37;;;;;;;4.33;3.93;;;9.50;53.30;;;;;;10539325;28;20200;-80
2021/04/08 17:46:42;;;;;;;4.07;3.70;;;9.50;51.40;;;;;;10541783;28;20296;-80
2021/04/08 17:51:44;;;;;;;4.93;3.87;;;9.40;53.70;;;;;;10537499;28;20193;-80
2021/04/08 17:56:45;;;;;;;5.40;3.80;;;9.40;51.70;;;;;;10521696;28;20285;-80
2021/04/08 18:01:48;;;;;;;6.03;4.40;;;9.30;52.70;;;;;;10540303;28;20254;-79
2021/04/08 18:06:50;;;;;;;4.93;3.57;;;9.10;53.50;;;;;;10545117;28;20220;-79
2021/04/08 18:11:51;;;;;;;4.90;3.70;;;8.90;54.00;;;;;;10543358;28;20278;-79
2021/04/08 18:16:54;;;;;;;5.40;4.63;;;8.70;54.70;;;;;;10526737;28;20219;-80
2021/04/08 18:21:56;;;;;;;4.60;4.20;;;8.50;55.40;;;;;;10546584;28;20672;-80
2021/04/08 18:26:58;;;;;;;5.80;4.60;;;8.20;55.50;;;;;;10528730;28;20216;-79
2021/04/08 18:32:01;;;;;;;5.03;4.53;;;8.00;56.30;;;;;;10536588;28;20282;-80
2021/04/08 18:37:03;;;;;;;5.73;5.33;;;7.80;56.90;;;;;;10514334;28;20251;-80
2021/04/08 18:42:05;;;;;;;4.70;4.30;;;7.60;57.10;;;;;;10543411;28;20268;-80
2021/04/08 18:47:08;;;;;;;5.73;4.90;;;7.40;57.30;;;;;;10548006;28;20889;-79
2021/04/08 18:52:17;;;;;;;6.47;5.57;;;7.30;57.50;;;;;;10548066;28;20715;-80
2021/04/08 18:57:21;;;;;;;8.87;7.87;;;7.20;57.90;;;;;;10532240;28;20224;-80
2021/04/08 19:02:24;;;;;;;8.07;7.00;;;7.10;58.20;;;;;;10498400;28;20660;-80
2021/04/08 19:07:26;;;;;;;6.10;5.57;;;7.00;58.60;;;;;;10510936;28;20208;-79
2021/04/08 19:12:27;;;;;;;6.87;6.23;;;6.90;58.70;;;;;;10535194;28;20245;-79
2021/04/08 19:17:30;;;;;;;6.10;5.20;;;6.80;58.90;;;;;;10492178;28;20741;-79
2021/04/08 19:22:32;;;;;;;7.13;6.23;;;6.70;59.20;;;;;;10508465;28;20552;-79
2021/04/08 19:27:34;;;;;;;6.00;5.40;;;6.70;59.30;;;;;;10520252;28;20220;-80
2021/04/08 19:32:37;;;;;;;8.47;7.33;;;6.60;59.30;;;;;;10522488;28;20508;-79
2021/04/08 19:37:38;;;;;;;7.17;6.47;;;6.50;60.00;;;;;;10522320;28;20270;-79
2021/04/08 19:42:41;;;;;;;7.20;6.37;;;6.50;60.00;;;;;;10525412;28;20188;-80
2021/04/08 19:47:44;;;;;;;10.37;7.00;;;6.50;60.00;;;;;;10527584;28;20916;-80
2021/04/08 19:52:49;;;;;;;6.63;6.03;;;6.40;60.10;;;;;;10500187;28;20184;-80
2021/04/08 19:57:51;;;;;;;8.57;7.70;;;6.30;60.80;;;;;;10528717;28;20224;-79
2021/04/08 20:02:53;;;;;;;9.33;6.90;;;6.20;61.20;;;;;;10540682;28;20207;-80
2021/04/08 20:07:55;;;;;;;8.10;7.30;;;6.10;61.40;;;;;;10542016;28;20215;-80
2021/04/08 20:12:57;;;;;;;6.83;6.13;;;6.10;62.00;;;;;;10505268;28;20200;-80
2021/04/08 20:17:59;;;;;;;6.30;5.70;;;6.00;62.10;;;;;;10522119;28;20232;-80
2021/04/08 20:23:01;;;;;;;5.90;5.40;;;6.00;62.70;;;;;;10539289;28;20631;-80
2021/04/08 20:28:03;;;;;;;5.60;5.10;;;5.90;62.90;;;;;;10511075;28;20298;-80
2021/04/08 20:33:06;;;;;;;7.87;5.20;;;5.90;62.50;;;;;;10514307;28;20188;-79
2021/04/08 20:38:07;;;;;;;9.17;6.30;;;5.90;62.60;;;;;;10513771;28;20718;-80
2021/04/08 20:43:09;;;;;;;9.13;6.10;;;5.90;61.80;;;;;;10522822;28;20188;-80
2021/04/08 20:48:11;;;;;;;9.67;7.13;;;5.90;62.40;;;;;;10556087;22;20240;-79
2021/04/08 20:53:13;;;;;;;7.40;6.63;;;6.00;62.40;;;;;;10506442;28;20196;-78
2021/04/08 20:58:15;;;;;;;8.63;6.17;;;6.00;61.70;;;;;;10516793;28;20677;-78
2021/04/08 21:03:18;;;;;;;9.10;6.43;;;6.00;61.50;;;;;;10500945;28;20248;-79
2021/04/08 21:08:20;;;;;;;9.10;5.60;;;6.00;60.80;;;;;;10480720;28;20580;-78
2021/04/08 21:13:22;;;;;;;7.10;6.40;;;6.00;61.00;;;;;;10500723;28;20245;-78
2021/04/08 21:18:25;;;;;;;6.73;6.13;;;6.00;60.60;;;;;;10506833;28;20216;-77
2021/04/08 21:23:28;;;;;;;6.83;6.13;;;6.00;60.90;;;;;;10477896;28;20196;-79
2021/04/08 21:28:29;;;;;;;6.67;6.10;;;6.00;61.20;;;;;;10491453;28;20267;-77
2021/04/08 21:33:32;;;;;;;9.27;6.50;;;6.00;60.90;;;;;;10505741;28;20227;-78
2021/04/08 21:38:34;;;;;;;11.70;6.87;;;5.90;60.90;;;;;;10499415;28;20212;-79
2021/04/08 21:43:35;;;;;;;6.83;6.13;;;5.90;61.30;;;;;;10479976;28;20216;-78
2021/04/08 21:48:38;;;;;;;7.93;6.47;;;5.80;61.60;;;;;;10479961;28;20269;-78
2021/04/08 21:53:40;;;;;;;8.60;6.77;;;5.80;62.00;;;;;;10490290;28;20197;-79
2021/04/08 21:58:41;;;;;;;8.07;7.10;;;5.60;62.60;;;;;;10494961;28;20227;-79
2021/04/08 22:03:44;;;;;;;7.67;6.87;;;5.50;63.00;;;;;;10499574;28;20208;-79
2021/04/08 22:08:46;;;;;;;7.33;6.63;;;5.50;63.50;;;;;;10505364;28;20250;-78
2021/04/08 22:13:48;;;;;;;9.10;6.40;;;5.50;63.80;;;;;;10507495;28;20264;-79
2021/04/08 22:18:50;;;;;;;10.37;7.17;;;5.40;64.20;;;;;;10513054;28;20208;-78
2021/04/08 22:23:53;;;;;;;8.03;7.00;;;5.40;64.40;;;;;;10487978;28;20561;-78
2021/04/08 22:28:55;;;;;;;8.77;7.90;;;5.30;64.20;;;;;;10502758;28;20328;-79
2021/04/08 22:33:57;;;;;;;8.73;7.83;;;5.20;64.80;;;;;;10505881;28;20242;-79
2021/04/08 22:38:59;;;;;;;9.13;7.80;;;5.20;64.40;;;;;;10489257;28;20232;-79
2021/04/08 22:44:00;;;;;;;8.80;7.87;;;5.10;64.80;;;;;;10505570;28;20215;-78
2021/04/08 22:49:03;;;;;;;8.27;7.47;;;5.00;65.00;;;;;;10503395;28;20723;-78
2021/04/08 22:54:05;;;;;;;7.87;7.07;;;4.90;65.50;;;;;;10507666;28;20228;-77
2021/04/08 22:59:09;;;;;;;8.73;6.90;;;4.80;65.50;;;;;;10502653;28;20243;-78
2021/04/08 23:04:12;;;;;;;8.33;7.50;;;4.80;65.70;;;;;;10504099;28;20189;-79
2021/04/08 23:09:14;;;;;;;7.67;6.90;;;4.70;65.60;;;;;;10486051;28;20281;-78
2021/04/08 23:14:16;;;;;;;10.50;7.73;;;4.70;65.80;;;;;;10504688;28;20208;-78
2021/04/08 23:19:19;;;;;;;8.63;7.20;;;4.70;66.30;;;;;;10502545;28;20699;-79
2021/04/08 23:24:21;;;;;;;8.90;7.90;;;4.70;66.40;;;;;;10504869;28;20196;-79
2021/04/08 23:29:22;;;;;;;11.23;8.33;;;4.70;66.60;;;;;;10505906;28;20204;-78
2021/04/08 23:34:25;;;;;;;7.63;6.70;;;4.70;66.90;;;;;;10513117;28;20600;-78
2021/04/08 23:39:26;;;;;;;13.77;8.07;;;4.60;66.90;;;;;;10504143;28;20704;-78
2021/04/08 23:44:28;;;;;;;8.40;7.60;;;4.60;66.90;;;;;;10503849;28;20219;-78
2021/04/08 23:49:31;;;;;;;7.63;6.83;;;4.60;67.20;;;;;;10468794;28;20690;-79
2021/04/08 23:54:32;;;;;;;7.77;6.90;;;4.60;67.60;;;;;;10504738;28;20242;-78
2021/04/08 23:59:34;;;;;;;9.27;8.37;;;4.60;67.70;;;;;;10512088;28;20652;-77
